Terminal Aerodrome Forecast
Issued by NWS Jacksonville, FL

Home | Current Version | Previous Version | Text Only | Print | Product List | Glossary On
Versions: 1 2 3 4 5 6 7 8 9 10 11 12 13
000
FTUS42 KJAX 231700
TAFSSI
TAF
KSSI 231729Z 2318/2418 VRB06KT P6SM FEW060
     FM231900 15006KT P6SM FEW060
     FM240100 VRB03KT P6SM SCT250
     FM241400 10010KT P6SM SCT045 SCT250=

USA.gov is the U.S. government's official web portal to all federal, state and local government web resources and services.